»·PEaware :: AMX619 KOAK-KSNA

AMX619 :: KOAK-KSNA

FLIGHT INFORMATION

Flight Status: Arrived
Operator:
Aeromexico
More flights by this operator :: More flights under this callsign
Pilot: Guillermo C. (14369)
Aircraft: Unknown
(738)
More flights by this aircraft type
Origin: KOAK Metro Oakland Intl
United States
Destination: KSNA John Wayne-Orange Co
United States
More flights between these airports :: More routes between these airports
Route: +COAST8 MCKEY DAISY BENET SXC
File this flight plan on PilotEdge
Remarks:
Altitude:
(Current/Filed)
31,000ft
Speed:
(Current/Filed)
459kts
Departed: 19-Apr-17 07:58 PM
Arrived: 19-Apr-17 09:15 PM
Distance/Time
Traveled:
322nm/1:17
Distance/Time
To Go:
Arrived

Flight Plot

Page will automatically refresh every two minutes.


Map Options




Map Legend


Flown Route
Filed Route
Departure Airport
Arrival Airport
Navaid (VOR, NDB)
Fix

Horizontal Profiles

Position Reports

Time Latitude Longitude Heading Altitude Ground
Speed
19-Apr-17 19:33 37.712847 -122.215962 126 12ft 0kts
19-Apr-17 19:34 37.712847 -122.215962 126 12ft 0kts
19-Apr-17 19:35 37.712847 -122.215962 126 12ft 0kts
19-Apr-17 19:36 37.712847 -122.215962 126 12ft 0kts
19-Apr-17 19:37 37.712847 -122.215962 126 12ft 0kts
19-Apr-17 19:38 37.712847 -122.215962 126 12ft 0kts
19-Apr-17 19:39 37.712847 -122.215962 126 12ft 0kts
19-Apr-17 19:40 37.712847 -122.215962 126 12ft 0kts
19-Apr-17 19:41 37.712847 -122.215962 126 12ft 0kts
19-Apr-17 19:42 37.712847 -122.215962 126 12ft 0kts
19-Apr-17 19:43 37.712847 -122.215962 126 12ft 0kts
19-Apr-17 19:44 37.712847 -122.215962 126 12ft 0kts
19-Apr-17 19:45 37.712847 -122.215962 0 12ft 0kts
19-Apr-17 19:46 37.712847 -122.215962 126 12ft 0kts
19-Apr-17 19:47 37.712847 -122.215962 126 12ft 0kts
19-Apr-17 19:48 37.712847 -122.215962 126 12ft 0kts
19-Apr-17 19:49 37.713100 -122.216483 101 12ft 3kts
19-Apr-17 19:50 37.712936 -122.216917 34 12ft 0kts
19-Apr-17 19:51 37.712936 -122.216917 34 12ft 0kts
19-Apr-17 19:52 37.712936 -122.216917 34 12ft 0kts
19-Apr-17 19:53 37.712088 -122.217247 221 12ft 21kts
19-Apr-17 19:54 37.711875 -122.220363 310 12ft 19kts
19-Apr-17 19:55 37.709689 -122.222787 130 12ft 18kts
19-Apr-17 19:56 37.706777 -122.218370 133 12ft 13kts
19-Apr-17 19:57 37.702933 -122.213649 163 12ft 0kts
19-Apr-17 19:58 37.702933 -122.213649 163 12ft 0kts
19-Apr-17 19:59 37.701941 -122.214229 256 12ft 30kts
19-Apr-17 20:00 37.708191 -122.224244 309 12ft 132kts
19-Apr-17 20:01 37.738468 -122.268306 308 996ft 189kts
19-Apr-17 20:02 37.769355 -122.314813 306 3555ft 179kts
19-Apr-17 20:03 37.792527 -122.365742 257 5418ft 177kts
19-Apr-17 20:04 37.760407 -122.394038 191 6800ft 201kts
19-Apr-17 20:05 37.707910 -122.390449 189 7726ft 268kts
19-Apr-17 20:06 37.639490 -122.415619 200 10617ft 274kts
19-Apr-17 20:07 37.564957 -122.446165 200 13111ft 296kts
19-Apr-17 20:08 37.486723 -122.478061 201 15834ft 304kts
19-Apr-17 20:08 37.419781 -122.505325 202 17929ft 310kts
19-Apr-17 20:10 37.322765 -122.544653 202 20640ft 321kts
19-Apr-17 20:11 37.238304 -122.578887 203 22715ft 329kts
19-Apr-17 20:11 37.164689 -122.606424 196 24290ft 342kts
19-Apr-17 20:13 37.050010 -122.594563 178 26250ft 369kts
19-Apr-17 20:14 36.949925 -122.568626 178 27949ft 371kts
19-Apr-17 20:14 36.874827 -122.549285 178 29200ft 369kts
19-Apr-17 20:15 36.775519 -122.523578 180 30637ft 367kts
19-Apr-17 20:16 36.676340 -122.498016 179 31313ft 372kts
19-Apr-17 20:18 36.555021 -122.466730 178 31317ft 409kts
19-Apr-17 20:18 36.460521 -122.436702 170 31317ft 444kts
19-Apr-17 20:19 36.349960 -122.356134 147 31300ft 486kts
19-Apr-17 20:20 36.264858 -122.224407 125 31304ft 509kts
19-Apr-17 20:21 36.183870 -122.085854 137 31308ft 497kts
19-Apr-17 20:22 36.095231 -121.956523 138 31309ft 496kts
19-Apr-17 20:23 36.005835 -121.827576 138 31311ft 497kts
19-Apr-17 20:24 35.916054 -121.698587 138 31311ft 496kts
19-Apr-17 20:25 35.828463 -121.573029 138 31282ft 497kts
19-Apr-17 20:26 35.738376 -121.444690 138 31229ft 497kts
19-Apr-17 20:27 35.651622 -121.321434 138 31203ft 496kts
19-Apr-17 20:28 35.562803 -121.195756 139 31209ft 496kts
19-Apr-17 20:29 35.468110 -121.076435 151 31219ft 478kts
19-Apr-17 20:30 35.360056 -120.986244 156 31226ft 469kts
19-Apr-17 20:31 35.251369 -120.900460 156 31241ft 472kts
19-Apr-17 20:32 35.139302 -120.812332 155 31238ft 481kts
19-Apr-17 20:33 35.027081 -120.724491 155 31239ft 481kts
19-Apr-17 20:34 34.914058 -120.636377 154 31245ft 486kts
19-Apr-17 20:35 34.802677 -120.549733 154 31246ft 488kts
19-Apr-17 20:36 34.688740 -120.461409 154 31245ft 488kts
19-Apr-17 20:37 34.574702 -120.373324 154 31238ft 488kts
19-Apr-17 20:38 34.470160 -120.292816 155 31215ft 487kts
19-Apr-17 20:39 34.357738 -120.206496 155 29288ft 462kts
19-Apr-17 20:40 34.256991 -120.118852 141 27454ft 455kts
19-Apr-17 20:41 34.186431 -119.993043 122 25652ft 454kts
19-Apr-17 20:42 34.124230 -119.864826 125 23862ft 438kts
19-Apr-17 20:43 34.062048 -119.742381 125 22077ft 424kts
19-Apr-17 20:44 34.001383 -119.623640 124 19857ft 410kts
19-Apr-17 20:45 33.943074 -119.509891 124 17584ft 393kts
19-Apr-17 20:46 33.887116 -119.401097 124 15325ft 379kts
19-Apr-17 20:47 33.835898 -119.299840 121 13144ft 367kts
19-Apr-17 20:48 33.783143 -119.198046 124 11023ft 348kts
19-Apr-17 20:49 33.732807 -119.102391 124 10991ft 342kts
19-Apr-17 20:50 33.682541 -119.005909 123 10991ft 342kts
19-Apr-17 20:51 33.634097 -118.912797 124 10971ft 301kts
19-Apr-17 20:52 33.589307 -118.827261 124 10769ft 309kts
19-Apr-17 20:53 33.546017 -118.742361 115 8926ft 296kts
19-Apr-17 20:54 33.537107 -118.650078 76 7302ft 260kts
19-Apr-17 20:55 33.558367 -118.566627 72 7018ft 268kts
19-Apr-17 20:56 33.580408 -118.481760 72 7019ft 268kts
19-Apr-17 20:57 33.602553 -118.397041 71 5474ft 261kts
19-Apr-17 20:58 33.621914 -118.322555 72 4036ft 250kts
19-Apr-17 20:59 33.643157 -118.241661 72 4004ft 256kts
19-Apr-17 21:00 33.664928 -118.161275 72 3995ft 256kts
19-Apr-17 21:01 33.686982 -118.082286 72 3991ft 254kts
19-Apr-17 21:02 33.704617 -118.020023 72 3986ft 248kts
19-Apr-17 21:03 33.721360 -117.967643 85 4002ft 192kts
19-Apr-17 21:04 33.703263 -117.912633 141 3711ft 194kts
19-Apr-17 21:05 33.664361 -117.883664 134 3500ft 191kts
19-Apr-17 21:06 33.651073 -117.825959 79 3498ft 197kts
19-Apr-17 21:07 33.681949 -117.777077 32 3502ft 198kts
19-Apr-17 21:08 33.727479 -117.740735 32 3495ft 198kts
19-Apr-17 21:09 33.776466 -117.723218 346 3492ft 188kts
19-Apr-17 21:10 33.814590 -117.759653 290 3484ft 181kts
19-Apr-17 21:11 33.806526 -117.807669 196 2849ft 164kts
19-Apr-17 21:12 33.765097 -117.814854 201 1935ft 153kts
19-Apr-17 21:13 33.728749 -117.834922 211 1201ft 152kts
19-Apr-17 21:14 33.699311 -117.853873 208 482ft 150kts
19-Apr-17 21:15 33.677833 -117.867491 208 65ft 62kts
19-Apr-17 21:16 33.676912 -117.868085 208 64ft 14kts
19-Apr-17 21:17 33.673754 -117.866890 76 65ft 15kts
19-Apr-17 21:18 33.675443 -117.865417 47 65ft 6kts
19-Apr-17 21:19 33.676103 -117.864463 113 64ft 0kts

Navigation Log

Ident Type
Flight plan parsing failed, navigation log unavailable